Fort Greely, Alaska
Current Conditions -  °F | °C
As of 5:53 PM on Monday 22 Dec 2014 (Local Time) from PABI Reporting Station
Broken Clouds Broken Clouds  
Wind Chill:   Ceiling: 20000
Heat Index:   Visibility: 10mi
Dew Point: -3°   Wind: 0mph
Humidity: 83%   Direction: NA
Pressure: 29.84"   Gusts: NA
Location:  63.98°N, 145.76°W
Report Text: PABI 230253Z 00000KT 10SM FEW120 SCT150 BKN200 M17/M19 A2984 RMK AO2 SLP156 ACSL DSNT SW CIG THN T11721194 51006
Loading
Personal Weather Stations






























Interactive Weather Map New forecast layout! Learn more

10-Day Weather Forecast

Advertisements
Track Severe Weather on mobile